Time;durP1;ratioP1;P1;durP2;ratioP2;P2;SDS_P1;SDS_P2;PMS_P1;PMS_P2;Temp;Humidity;BMP_temperature;BMP_pressure;BME280_temperature;BME280_humidity;BME280_pressure;Samples;Min_cycle;Max_cycle;Signal;HPM_P1;HPM_P2
2023/05/21 00:00:29;;;;;;;17.88;6.15;;;;;;;13.23;100.00;101677.16;5081328;28;20094;-67
2023/05/21 00:02:54;;;;;;;17.98;6.10;;;;;;;13.18;100.00;101678.91;5079447;28;20507;-67
2023/05/21 00:05:20;;;;;;;18.38;6.40;;;;;;;13.13;100.00;101677.09;5077296;28;20033;-67
2023/05/21 00:07:45;;;;;;;18.48;6.97;;;;;;;13.01;100.00;101673.47;5079431;28;20032;-67
2023/05/21 00:10:11;;;;;;;18.20;6.85;;;;;;;13.08;100.00;101675.28;5061168;28;20077;-67
2023/05/21 00:12:37;;;;;;;20.23;6.90;;;;;;;12.97;100.00;101670.78;5075974;28;20040;-67
2023/05/21 00:15:02;;;;;;;16.80;6.63;;;;;;;12.96;100.00;101669.00;5080957;28;20536;-67
2023/05/21 00:17:28;;;;;;;18.33;6.68;;;;;;;12.87;100.00;101665.41;5079718;28;20057;-67
2023/05/21 00:19:55;;;;;;;19.45;7.18;;;;;;;12.88;100.00;101661.84;5064820;28;20467;-67
2023/05/21 00:22:21;;;;;;;20.38;8.57;;;;;;;12.87;100.00;101661.84;5082866;28;20028;-67
2023/05/21 00:24:46;;;;;;;22.40;11.57;;;;;;;12.93;100.00;101661.91;5081471;28;20604;-67
2023/05/21 00:27:12;;;;;;;24.05;13.43;;;;;;;12.96;100.00;101664.59;5082188;28;20111;-67
2023/05/21 00:29:37;;;;;;;24.65;14.50;;;;;;;12.90;100.00;101657.47;5079140;28;20032;-68
2023/05/21 00:32:03;;;;;;;23.50;13.32;;;;;;;12.83;100.00;101658.28;5077997;28;20586;-67
2023/05/21 00:34:29;;;;;;;23.42;13.18;;;;;;;12.74;100.00;101652.91;5082382;28;20032;-67
2023/05/21 00:36:54;;;;;;;22.42;11.73;;;;;;;12.69;100.00;101654.63;5078531;28;20028;-68
2023/05/21 00:39:20;;;;;;;20.58;10.02;;;;;;;12.68;100.00;101647.53;5081542;28;20159;-67
2023/05/21 00:41:47;;;;;;;20.80;8.60;;;;;;;12.68;100.00;101658.16;5078775;28;20115;-67
2023/05/21 00:44:13;;;;;;;19.40;8.40;;;;;;;12.60;100.00;101650.16;5079609;28;20081;-67
2023/05/21 00:46:40;;;;;;;19.20;7.85;;;;;;;12.56;100.00;101651.84;5078283;28;20040;-68
2023/05/21 00:49:06;;;;;;;18.83;7.43;;;;;;;12.60;100.00;101655.44;5078189;28;20028;-68
2023/05/21 00:51:31;;;;;;;18.08;7.13;;;;;;;12.61;100.00;101645.72;5076305;28;20239;-68
2023/05/21 00:53:57;;;;;;;18.55;7.13;;;;;;;12.56;100.00;101654.50;5077780;28;20170;-67
2023/05/21 00:56:23;;;;;;;19.85;7.10;;;;;;;12.62;100.00;101658.09;5082701;28;20467;-68
2023/05/21 00:58:58;;;;;;;19.35;7.22;;;;;;;12.56;100.00;101646.56;5081896;28;20024;-68
2023/05/21 01:01:32;;;;;;;18.20;6.85;;;;;;;12.60;100.00;101644.84;5079707;28;20153;-68
2023/05/21 01:04:00;;;;;;;18.08;6.90;;;;;;;12.61;100.00;101651.03;5081977;28;20387;-67
2023/05/21 01:06:27;;;;;;;18.40;6.95;;;;;;;12.59;100.00;101647.47;5060626;28;20021;-68
2023/05/21 01:08:55;;;;;;;18.75;7.15;;;;;;;12.50;100.00;101649.16;5073735;28;20031;-68
2023/05/21 01:11:30;;;;;;;17.85;6.88;;;;;;;12.48;100.00;101650.94;5076992;28;20024;-67
2023/05/21 01:13:56;;;;;;;19.10;7.50;;;;;;;12.47;100.00;101649.13;5080112;28;20050;-68
2023/05/21 01:16:22;;;;;;;17.88;6.70;;;;;;;12.46;100.00;101644.69;5078370;28;20021;-67
2023/05/21 01:18:47;;;;;;;19.42;7.10;;;;;;;12.41;100.00;101645.53;5077982;28;20024;-68
2023/05/21 01:21:16;;;;;;;18.92;7.30;;;;;;;12.40;100.00;101641.13;5077746;28;20055;-68
2023/05/21 01:23:41;;;;;;;19.23;7.75;;;;;;;12.35;100.00;101641.09;5080541;28;20028;-68
2023/05/21 01:26:07;;;;;;;20.05;7.50;;;;;;;12.27;100.00;101640.09;5080144;28;20356;-68
2023/05/21 01:28:33;;;;;;;18.58;7.07;;;;;;;12.29;100.00;101641.00;5080108;28;20130;-67
2023/05/21 01:31:10;;;;;;;19.55;7.28;;;;;;;12.20;100.00;101645.34;5081478;28;20024;-68
2023/05/21 01:33:44;;;;;;;18.10;7.25;;;;;;;12.26;100.00;101648.91;5076844;28;20036;-68
2023/05/21 01:36:22;;;;;;;18.80;7.15;;;;;;;12.18;100.00;101643.56;5080957;28;20028;-68
2023/05/21 01:38:50;;;;;;;18.80;7.63;;;;;;;12.21;100.00;101639.16;5078302;28;20028;-67
2023/05/21 01:41:17;;;;;;;18.65;7.80;;;;;;;12.20;100.00;101639.13;5078045;28;20048;-68
2023/05/21 01:43:45;;;;;;;20.27;8.00;;;;;;;12.15;100.00;101647.06;5059317;28;20024;-68
2023/05/21 01:46:15;;;;;;;19.33;7.68;;;;;;;12.17;100.00;101637.38;5080104;28;20024;-67
2023/05/21 01:48:42;;;;;;;18.85;7.47;;;;;;;12.21;100.00;101641.81;5080113;28;20032;-67
2023/05/21 01:51:08;;;;;;;19.65;7.10;;;;;;;12.14;100.00;101639.97;5079391;28;20051;-68
2023/05/21 01:53:33;;;;;;;19.75;7.38;;;;;;;12.19;100.00;101638.25;5081650;28;20048;-68
2023/05/21 01:55:59;;;;;;;19.17;7.93;;;;;;;12.23;100.00;101633.88;5077215;28;20052;-68
2023/05/21 01:58:25;;;;;;;19.00;7.80;;;;;;;12.20;100.00;101625.88;5077468;28;20082;-68
2023/05/21 02:00:50;;;;;;;18.80;7.70;;;;;;;12.27;100.00;101637.47;5077206;28;20029;-68
2023/05/21 02:03:17;;;;;;;19.35;7.60;;;;;;;12.28;100.00;101632.16;5076242;28;20124;-68
2023/05/21 02:05:43;;;;;;;18.75;7.40;;;;;;;12.30;100.00;101626.88;5058828;28;20028;-68
2023/05/21 02:08:08;;;;;;;19.02;7.40;;;;;;;12.45;100.00;101623.47;5079509;28;20078;-67
2023/05/21 02:10:37;;;;;;;18.63;7.60;;;;;;;12.38;100.00;101627.84;5079643;28;20029;-68
2023/05/21 02:13:02;;;;;;;19.65;7.43;;;;;;;12.52;100.00;101627.97;5080018;28;20033;-68
2023/05/21 02:15:27;;;;;;;19.80;7.40;;;;;;;12.58;100.00;101622.69;5078689;28;20078;-68
2023/05/21 02:17:54;;;;;;;19.45;7.00;;;;;;;12.61;100.00;101625.41;5079030;28;20021;-68
2023/05/21 02:20:21;;;;;;;18.23;7.18;;;;;;;12.66;100.00;101628.09;5076448;28;20036;-68
2023/05/21 02:22:47;;;;;;;18.00;7.05;;;;;;;12.66;100.00;101628.09;5078300;28;20108;-68
2023/05/21 02:25:15;;;;;;;18.60;7.30;;;;;;;12.63;100.00;101625.41;5077342;28;20020;-68
2023/05/21 02:27:41;;;;;;;18.80;7.28;;;;;;;12.58;100.00;101621.81;5077162;28;20058;-68
2023/05/21 02:30:09;;;;;;;18.77;7.28;;;;;;;12.56;100.00;101622.69;5059441;28;20390;-68
2023/05/21 02:32:35;;;;;;;18.40;7.38;;;;;;;12.65;100.00;101624.53;5075995;28;20035;-67
2023/05/21 02:35:02;;;;;;;18.40;7.18;;;;;;;12.68;100.00;101626.31;5076282;28;20107;-68
2023/05/21 02:37:28;;;;;;;19.38;7.70;;;;;;;12.73;100.00;101629.91;5076617;28;20450;-68
2023/05/21 02:39:54;;;;;;;18.80;7.30;;;;;;;12.70;100.00;101627.25;5075147;28;20020;-68
2023/05/21 02:42:22;;;;;;;18.70;7.20;;;;;;;12.75;100.00;101622.84;5074863;28;20056;-68
2023/05/21 02:44:48;;;;;;;18.70;7.00;;;;;;;12.81;100.00;101616.69;5078075;28;20035;-68
2023/05/21 02:47:13;;;;;;;18.40;7.28;;;;;;;12.76;100.00;101623.75;5077892;28;20473;-68
2023/05/21 02:49:39;;;;;;;18.33;7.35;;;;;;;12.70;100.00;101613.97;5076920;28;20116;-68
2023/05/21 02:52:04;;;;;;;18.50;7.47;;;;;;;12.70;100.00;101617.50;5074391;28;20105;-68
2023/05/21 02:54:30;;;;;;;18.17;7.38;;;;;;;12.71;100.00;101615.72;5075736;28;20135;-68
2023/05/21 02:56:55;;;;;;;18.80;7.57;;;;;;;12.75;100.00;101616.66;5076740;28;20025;-67
2023/05/21 02:59:20;;;;;;;18.33;7.57;;;;;;;12.72;100.00;101607.78;5078816;28;20387;-68
2023/05/21 03:01:46;;;;;;;17.90;7.35;;;;;;;12.77;100.00;101606.94;5077355;28;20028;-68
2023/05/21 03:04:11;;;;;;;19.02;7.75;;;;;;;12.72;100.00;101604.25;5077746;28;20446;-68
2023/05/21 03:06:36;;;;;;;19.70;7.32;;;;;;;12.72;100.00;101604.25;5075490;28;20456;-68
2023/05/21 03:09:04;;;;;;;18.40;7.70;;;;;;;12.70;100.00;101604.25;5079034;28;20032;-68
2023/05/21 03:11:29;;;;;;;19.65;7.10;;;;;;;12.65;100.00;101603.31;5078588;28;20036;-68
2023/05/21 03:13:55;;;;;;;18.77;7.45;;;;;;;12.62;100.00;101597.97;5076386;28;20024;-67
2023/05/21 03:16:21;;;;;;;19.70;7.70;;;;;;;12.58;100.00;101597.94;5076338;28;20464;-68
2023/05/21 03:18:46;;;;;;;19.17;7.75;;;;;;;12.55;100.00;101594.41;5075165;28;20036;-68
2023/05/21 03:21:14;;;;;;;20.40;7.75;;;;;;;12.51;100.00;101591.72;5076376;28;20100;-68
2023/05/21 03:23:40;;;;;;;19.60;7.95;;;;;;;12.47;100.00;101593.44;5074864;28;20035;-68
2023/05/21 03:26:06;;;;;;;18.58;7.55;;;;;;;12.43;100.00;101590.75;5077893;28;20089;-68
2023/05/21 03:28:32;;;;;;;19.85;8.20;;;;;;;12.43;100.00;101588.13;5076463;28;20032;-67
2023/05/21 03:30:57;;;;;;;18.98;7.65;;;;;;;12.43;100.00;101589.00;5075849;28;20369;-68
2023/05/21 03:33:22;;;;;;;18.90;7.90;;;;;;;12.41;100.00;101589.84;5074389;28;20032;-68
2023/05/21 03:35:48;;;;;;;19.10;8.23;;;;;;;12.47;100.00;101584.63;5075359;28;20613;-68
2023/05/21 03:38:13;;;;;;;19.50;8.50;;;;;;;12.49;100.00;101591.69;5077855;28;20032;-68
2023/05/21 03:40:39;;;;;;;19.05;8.00;;;;;;;12.56;100.00;101598.81;5078372;28;20033;-68
2023/05/21 03:43:04;;;;;;;19.27;8.02;;;;;;;12.63;100.00;101598.88;5078051;28;20029;-68
2023/05/21 03:45:30;;;;;;;18.85;7.78;;;;;;;12.70;100.00;101596.28;5076459;28;20036;-68
2023/05/21 03:47:55;;;;;;;19.92;8.02;;;;;;;12.73;100.00;101591.00;5076863;28;20097;-68
2023/05/21 03:50:20;;;;;;;18.90;7.85;;;;;;;12.72;100.00;101591.00;5076982;28;20052;-68
2023/05/21 03:52:46;;;;;;;19.67;7.88;;;;;;;12.75;100.00;101600.75;5073492;28;20576;-69
2023/05/21 03:55:11;;;;;;;19.77;8.02;;;;;;;12.74;100.00;101594.53;5078412;28;20040;-68
2023/05/21 03:57:37;;;;;;;19.95;8.30;;;;;;;12.74;100.00;101591.88;5077913;28;20028;-68
2023/05/21 04:00:03;;;;;;;19.95;8.02;;;;;;;12.72;100.00;101586.56;5080993;28;20039;-68
2023/05/21 04:02:30;;;;;;;18.70;8.52;;;;;;;12.69;100.00;101593.63;5078439;28;20037;-68
2023/05/21 04:04:56;;;;;;;20.00;8.07;;;;;;;12.68;100.00;101589.19;5079123;28;20114;-68
2023/05/21 04:07:21;;;;;;;19.35;8.35;;;;;;;12.63;100.00;101590.94;5080327;28;20051;-68
2023/05/21 04:09:47;;;;;;;19.10;8.18;;;;;;;12.63;100.00;101594.47;5100403;28;20056;-68
2023/05/21 04:12:12;;;;;;;19.10;8.23;;;;;;;12.60;100.00;101590.91;5102476;28;20033;-68
2023/05/21 04:14:38;;;;;;;19.67;8.38;;;;;;;12.52;100.00;101593.47;5101967;28;20040;-68
2023/05/21 04:17:04;;;;;;;19.73;8.02;;;;;;;12.49;100.00;101594.34;5100649;28;20029;-69
2023/05/21 04:19:30;;;;;;;20.27;8.43;;;;;;;12.43;100.00;101596.94;5099748;28;20052;-70
2023/05/21 04:21:56;;;;;;;19.27;8.50;;;;;;;12.37;100.00;101592.47;5101654;28;20036;-68
2023/05/21 04:24:22;;;;;;;19.88;8.30;;;;;;;12.43;100.00;101594.28;5103830;28;20013;-68
2023/05/21 04:26:48;;;;;;;19.58;8.23;;;;;;;12.47;100.00;101600.53;5087741;28;20531;-68
2023/05/21 04:29:16;;;;;;;18.90;8.20;;;;;;;12.45;100.00;101597.88;5081045;28;20043;-68
2023/05/21 04:31:42;;;;;;;20.27;8.32;;;;;;;12.48;100.00;101602.28;5083109;28;20075;-67
2023/05/21 04:34:08;;;;;;;19.75;8.75;;;;;;;12.47;100.00;101598.75;5080851;28;20056;-68
2023/05/21 04:36:33;;;;;;;19.23;8.43;;;;;;;12.52;100.00;101597.03;5079125;28;20063;-68
2023/05/21 04:39:00;;;;;;;19.35;8.45;;;;;;;12.54;100.00;101600.59;5079814;28;20034;-68
2023/05/21 04:41:25;;;;;;;19.70;8.70;;;;;;;12.52;100.00;101602.34;5080795;28;20352;-68
2023/05/21 04:43:53;;;;;;;20.23;8.77;;;;;;;12.54;100.00;101597.94;5085734;28;20055;-67
2023/05/21 04:46:23;;;;;;;20.52;8.60;;;;;;;12.55;100.00;101605.03;5063341;28;20459;-68
2023/05/21 04:48:52;;;;;;;19.52;9.00;;;;;;;12.57;100.00;101605.03;5082225;28;20037;-68
2023/05/21 04:51:18;;;;;;;19.45;9.00;;;;;;;12.62;100.00;101607.72;5079773;28;20035;-68
2023/05/21 04:53:43;;;;;;;20.27;9.40;;;;;;;12.67;100.00;101603.34;5079731;28;20048;-68
2023/05/21 04:56:08;;;;;;;19.92;8.85;;;;;;;12.63;100.00;101602.41;5079552;28;20384;-68
2023/05/21 04:58:34;;;;;;;19.92;8.90;;;;;;;12.66;100.00;101605.09;5079209;28;20376;-67
2023/05/21 05:01:02;;;;;;;20.20;9.20;;;;;;;12.74;100.00;101610.44;5079358;28;20475;-68
2023/05/21 05:03:27;;;;;;;20.40;9.15;;;;;;;12.73;100.00;101606.03;5081555;28;20031;-68
2023/05/21 05:05:53;;;;;;;21.17;9.68;;;;;;;12.78;100.00;101604.28;5080830;28;20036;-68
2023/05/21 05:08:18;;;;;;;20.10;9.18;;;;;;;12.79;100.00;101614.03;5075858;28;20024;-68
2023/05/21 05:10:43;;;;;;;21.33;9.00;;;;;;;12.86;100.00;101607.91;5079223;28;20028;-68
2023/05/21 05:13:09;;;;;;;20.70;9.40;;;;;;;12.89;100.00;101613.22;5075385;28;20426;-68
2023/05/21 05:15:34;;;;;;;19.80;9.38;;;;;;;12.96;100.00;101607.94;5081851;28;20349;-68
2023/05/21 05:18:00;;;;;;;20.10;8.98;;;;;;;13.03;100.00;101604.47;5081521;28;20033;-68
2023/05/21 05:20:26;;;;;;;21.50;9.93;;;;;;;13.13;100.00;101598.31;5082964;28;20082;-68
2023/05/21 05:22:51;;;;;;;20.65;9.55;;;;;;;13.17;100.00;101594.81;5078395;28;20538;-68
2023/05/21 05:25:16;;;;;;;21.13;9.32;;;;;;;13.24;100.00;101607.25;5060631;28;20111;-68
2023/05/21 05:27:42;;;;;;;19.92;9.43;;;;;;;13.32;100.00;101612.59;5078519;28;20136;-68
2023/05/21 05:30:08;;;;;;;22.33;9.55;;;;;;;13.36;100.00;101605.56;5079401;28;20361;-68
2023/05/21 05:32:34;;;;;;;19.50;9.00;;;;;;;13.42;100.00;101600.28;5081434;28;20025;-68
2023/05/21 05:34:59;;;;;;;21.30;9.55;;;;;;;13.46;100.00;101598.53;5077593;28;20072;-68
2023/05/21 05:37:24;;;;;;;20.48;9.23;;;;;;;13.58;100.00;101606.56;5077780;28;20028;-68
2023/05/21 05:39:50;;;;;;;20.73;9.43;;;;;;;13.64;100.00;101606.56;5077500;28;20028;-68
2023/05/21 05:42:15;;;;;;;20.70;9.32;;;;;;;13.71;100.00;101607.50;5077354;28;20108;-68
2023/05/21 05:44:40;;;;;;;20.38;9.40;;;;;;;13.74;100.00;101602.19;5080773;28;20028;-68
2023/05/21 05:47:09;;;;;;;20.60;9.45;;;;;;;13.82;100.00;101605.75;5080037;28;20033;-68
2023/05/21 05:49:35;;;;;;;21.67;9.25;;;;;;;13.86;100.00;101606.66;5079769;28;20025;-68
2023/05/21 05:52:00;;;;;;;20.60;9.02;;;;;;;13.94;100.00;101607.56;5081416;28;20034;-68
2023/05/21 05:54:25;;;;;;;20.63;9.25;;;;;;;13.97;100.00;101601.38;5078992;28;20103;-68
2023/05/21 05:56:51;;;;;;;20.63;9.27;;;;;;;14.08;100.00;101599.59;5078554;28;20031;-68
2023/05/21 05:59:16;;;;;;;19.27;9.07;;;;;;;14.13;100.00;101600.50;5080246;28;20032;-68
2023/05/21 06:01:41;;;;;;;19.67;9.15;;;;;;;14.17;100.00;101602.28;5080179;28;20028;-70
2023/05/21 06:04:07;;;;;;;20.65;9.25;;;;;;;14.29;100.00;101602.28;5078763;28;20115;-68
2023/05/21 06:06:33;;;;;;;20.17;9.23;;;;;;;14.36;100.00;101607.63;5078919;28;20036;-69
2023/05/21 06:08:59;;;;;;;20.77;9.80;;;;;;;14.42;100.00;101615.63;5079354;28;20029;-68
2023/05/21 06:11:25;;;;;;;20.63;9.40;;;;;;;14.46;100.00;101601.44;5077703;28;20016;-68
2023/05/21 06:13:50;;;;;;;20.27;9.60;;;;;;;14.48;100.00;101597.88;5078676;28;20430;-68
2023/05/21 06:16:16;;;;;;;21.27;9.60;;;;;;;14.63;100.00;101599.69;5074429;28;20111;-69
2023/05/21 06:18:41;;;;;;;20.30;9.48;;;;;;;14.70;100.00;101600.56;5075163;28;20077;-67
2023/05/21 06:21:07;;;;;;;19.95;9.27;;;;;;;14.86;100.00;101601.44;5075093;28;20116;-69
2023/05/21 06:23:34;;;;;;;19.50;9.18;;;;;;;14.95;100.00;101604.06;5073615;28;20479;-67
2023/05/21 06:25:59;;;;;;;21.50;9.70;;;;;;;15.04;100.00;101607.63;5077243;28;20024;-68
2023/05/21 06:28:25;;;;;;;21.27;9.27;;;;;;;15.19;100.00;101610.25;5078012;28;20079;-68
2023/05/21 06:30:50;;;;;;;20.80;9.80;;;;;;;15.25;100.00;101612.91;5075047;28;20109;-69
2023/05/21 06:33:15;;;;;;;21.08;9.75;;;;;;;15.33;100.00;101612.84;5073789;28;20020;-67
2023/05/21 06:35:41;;;;;;;19.88;9.10;;;;;;;15.40;100.00;101611.06;5078747;28;20467;-66
2023/05/21 06:38:06;;;;;;;19.90;9.57;;;;;;;15.43;100.00;101611.94;5077783;28;20041;-68
2023/05/21 06:40:31;;;;;;;20.48;9.43;;;;;;;15.49;100.00;101606.59;5078391;28;20066;-67
2023/05/21 06:42:58;;;;;;;20.65;9.68;;;;;;;15.63;100.00;101595.88;5075570;28;20036;-69
2023/05/21 06:45:24;;;;;;;20.90;10.23;;;;;;;15.67;100.00;101596.75;5079588;28;20491;-68
2023/05/21 06:47:49;;;;;;;20.42;9.90;;;;;;;15.76;100.00;101594.03;5076539;28;20085;-68
2023/05/21 06:50:15;;;;;;;19.85;9.35;;;;;;;15.77;100.00;101608.22;5059599;28;20483;-69
2023/05/21 06:52:40;;;;;;;20.38;9.55;;;;;;;15.81;100.00;101602.94;5077578;28;20527;-68
2023/05/21 06:55:06;;;;;;;20.00;9.35;;;;;;;15.88;100.00;101598.44;5078769;28;20160;-70
2023/05/21 06:57:32;;;;;;;21.02;9.60;;;;;;;16.03;100.00;101603.69;5078749;28;20137;-71
2023/05/21 06:59:57;;;;;;;20.33;9.40;;;;;;;16.14;100.00;101595.63;5079367;28;20021;-69
2023/05/21 07:02:23;;;;;;;21.13;10.10;;;;;;;16.26;100.00;101596.44;5079012;28;20079;-68
2023/05/21 07:04:48;;;;;;;20.77;9.63;;;;;;;16.30;100.00;101591.06;5078456;28;20077;-70
2023/05/21 07:07:13;;;;;;;20.83;9.88;;;;;;;16.33;100.00;101585.69;5078836;28;20195;-69
2023/05/21 07:09:39;;;;;;;20.00;9.20;;;;;;;16.53;100.00;101585.53;5078611;28;20157;-69
2023/05/21 07:12:05;;;;;;;20.42;9.57;;;;;;;16.64;100.00;101588.09;5074707;28;20388;-69
2023/05/21 07:14:30;;;;;;;20.95;9.98;;;;;;;16.65;100.00;101591.66;5079260;28;20036;-68
2023/05/21 07:16:56;;;;;;;21.02;9.55;;;;;;;16.76;100.00;101583.53;5059014;28;20434;-68
2023/05/21 07:19:21;;;;;;;20.60;9.48;;;;;;;16.92;100.00;101589.66;5077827;28;20032;-68
2023/05/21 07:21:46;;;;;;;22.00;9.98;;;;;;;16.99;100.00;101575.34;5073859;28;20110;-68
2023/05/21 07:24:14;;;;;;;20.30;9.77;;;;;;;17.05;100.00;101586.84;5078607;28;20541;-69
2023/05/21 07:26:40;;;;;;;21.45;10.05;;;;;;;17.11;100.00;101585.91;5074150;28;20043;-67
2023/05/21 07:29:06;;;;;;;21.67;10.07;;;;;;;17.12;100.00;101584.09;5072501;28;20024;-68
2023/05/21 07:31:31;;;;;;;20.13;9.70;;;;;;;17.23;100.00;101587.53;5073484;28;20514;-67
2023/05/21 07:33:56;;;;;;;19.95;9.43;;;;;;;17.22;100.00;101588.44;5073955;28;20089;-69
2023/05/21 07:36:22;;;;;;;21.02;9.85;;;;;;;17.17;100.00;101582.25;5058813;28;20115;-68
2023/05/21 07:38:47;;;;;;;21.67;10.15;;;;;;;17.18;100.00;101581.34;5079498;28;20387;-69
2023/05/21 07:41:12;;;;;;;20.98;9.88;;;;;;;17.28;100.00;101575.00;5075143;28;20111;-67
2023/05/21 07:43:38;;;;;;;20.67;9.82;;;;;;;17.43;100.00;101577.50;5076234;28;20495;-67
2023/05/21 07:46:03;;;;;;;20.90;9.82;;;;;;;17.54;100.00;101582.69;5076297;28;20382;-68
2023/05/21 07:48:28;;;;;;;20.67;9.63;;;;;;;17.72;100.00;101578.00;5078983;28;20032;-67
2023/05/21 07:50:55;;;;;;;21.60;9.98;;;;;;;17.83;100.00;101581.41;5079359;28;20542;-68
2023/05/21 07:53:20;;;;;;;22.27;10.38;;;;;;;18.03;100.00;101577.63;5079901;28;20045;-69
2023/05/21 07:55:46;;;;;;;20.73;10.05;;;;;;;18.25;100.00;101578.16;5061671;28;20375;-69
2023/05/21 07:58:16;;;;;;;21.17;10.15;;;;;;;18.33;100.00;101570.88;5081323;28;20111;-69
2023/05/21 08:00:43;;;;;;;21.48;10.20;;;;;;;18.51;100.00;101576.81;5081445;28;20107;-70
2023/05/21 08:03:10;;;;;;;21.35;10.18;;;;;;;18.64;100.00;101581.09;5077051;28;20035;-69
2023/05/21 08:05:36;;;;;;;21.17;9.73;;;;;;;18.72;100.00;101579.13;5080090;28;20036;-69
2023/05/21 08:08:02;;;;;;;21.15;10.43;;;;;;;18.77;100.00;101579.94;5080258;28;20040;-69
2023/05/21 08:10:27;;;;;;;20.83;10.10;;;;;;;18.80;100.00;101571.84;5082340;28;20526;-69
2023/05/21 08:12:52;;;;;;;20.85;10.43;;;;;;;18.84;100.00;101571.78;5076656;28;20028;-70
2023/05/21 08:15:18;;;;;;;21.48;10.45;;;;;;;18.90;100.00;101574.38;5063516;28;20064;-70
2023/05/21 08:17:43;;;;;;;22.02;10.85;;;;;;;18.88;100.00;101576.22;5081154;28;20090;-69
2023/05/21 08:20:09;;;;;;;20.63;10.73;;;;;;;18.97;100.00;101573.34;5081514;28;20024;-69
2023/05/21 08:22:34;;;;;;;21.70;10.40;;;;;;;19.02;100.00;101575.94;5083848;28;20170;-70
2023/05/21 08:25:00;;;;;;;20.45;10.18;;;;;;;19.16;100.00;101571.19;5082098;28;20082;-70
2023/05/21 08:27:25;;;;;;;21.15;10.40;;;;;;;19.32;100.00;101569.09;5082470;28;20415;-70
2023/05/21 08:29:51;;;;;;;22.42;10.73;;;;;;;19.51;100.00;101569.59;5081942;28;20032;-70
2023/05/21 08:32:16;;;;;;;21.98;10.77;;;;;;;19.61;100.00;101564.91;5077609;28;20067;-69
2023/05/21 08:34:42;;;;;;;21.05;10.55;;;;;;;19.56;100.00;101564.16;5082477;28;20028;-70
2023/05/21 08:37:07;;;;;;;20.77;10.18;;;;;;;19.81;100.00;101562.69;5079849;28;20059;-70
2023/05/21 08:39:33;;;;;;;20.30;9.98;;;;;;;20.25;99.51;101561.69;5080211;28;20021;-70
2023/05/21 08:42:08;;;;;;;21.00;10.30;;;;;;;20.60;96.28;101558.09;5080353;28;20033;-70
2023/05/21 08:44:36;;;;;;;20.25;9.98;;;;;;;20.54;94.06;101559.13;5077287;28;20020;-70
2023/05/21 08:47:06;;;;;;;21.70;10.90;;;;;;;20.53;91.74;101552.00;5074768;28;20042;-70
2023/05/21 08:49:34;;;;;;;21.35;10.43;;;;;;;20.61;91.81;101548.25;5078656;28;20518;-70
2023/05/21 08:52:01;;;;;;;22.33;10.73;;;;;;;20.58;89.89;101554.56;5076222;28;20101;-70
2023/05/21 08:54:27;;;;;;;21.48;10.50;;;;;;;20.63;90.07;101557.13;5078850;28;20571;-70
2023/05/21 08:56:53;;;;;;;20.98;10.18;;;;;;;20.73;90.21;101558.69;5080493;28;20123;-70
2023/05/21 08:59:20;;;;;;;21.58;10.60;;;;;;;20.76;89.70;101558.59;5075506;28;20039;-70
2023/05/21 09:01:48;;;;;;;20.85;10.38;;;;;;;20.81;86.37;101551.31;5078153;28;20070;-69
2023/05/21 09:04:16;;;;;;;21.92;10.15;;;;;;;20.98;87.30;101555.31;5082273;28;20050;-70
2023/05/21 09:06:42;;;;;;;21.20;10.10;;;;;;;21.05;86.11;101554.22;5081932;28;20025;-70
2023/05/21 09:09:26;;;;;;;21.48;11.10;;;;;;;21.09;86.80;101550.53;5078161;28;20372;-70
2023/05/21 09:11:52;;;;;;;21.65;11.02;;;;;;;21.16;81.57;101548.53;5081981;28;20028;-70
2023/05/21 09:14:18;;;;;;;21.27;10.70;;;;;;;21.22;84.51;101554.63;5080507;28;20383;-70
2023/05/21 09:16:47;;;;;;;22.75;12.07;;;;;;;21.40;82.89;101555.00;5079664;28;20040;-70
2023/05/21 09:19:12;;;;;;;21.30;10.65;;;;;;;21.54;81.86;101550.13;5079538;28;20055;-69
2023/05/21 09:21:38;;;;;;;20.17;10.00;;;;;;;21.85;81.27;101549.19;5076561;28;20068;-70
2023/05/21 09:24:03;;;;;;;21.25;11.20;;;;;;;22.09;80.54;101554.69;5078122;28;20044;-70
2023/05/21 09:26:29;;;;;;;23.23;11.80;;;;;;;22.28;78.59;101555.88;5078794;28;20192;-70
2023/05/21 09:28:59;;;;;;;21.35;10.57;;;;;;;22.39;75.94;101566.28;5077138;28;20111;-70
2023/05/21 09:31:25;;;;;;;21.52;10.20;;;;;;;22.47;74.78;101560.66;5079916;28;20029;-70
2023/05/21 09:33:50;;;;;;;20.73;9.88;;;;;;;22.59;75.32;101554.84;5075032;28;20028;-70
2023/05/21 09:36:20;;;;;;;23.58;10.82;;;;;;;22.45;75.05;101552.66;5081178;28;20490;-70
2023/05/21 09:38:47;;;;;;;22.05;10.27;;;;;;;22.27;74.69;101542.44;5077538;28;20028;-69
2023/05/21 09:41:13;;;;;;;21.27;9.90;;;;;;;22.44;75.23;101545.47;5075060;28;20024;-68
2023/05/21 09:43:42;;;;;;;23.58;10.40;;;;;;;22.60;73.21;101540.44;5078679;28;20033;-69
2023/05/21 09:46:07;;;;;;;20.70;10.10;;;;;;;23.02;74.85;101543.47;5080544;28;20029;-67
2023/05/21 09:48:33;;;;;;;21.98;10.40;;;;;;;23.41;71.35;101538.41;5079641;28;20032;-69
2023/05/21 09:51:25;;;;;;;20.70;10.23;;;;;;;23.90;68.13;101535.63;5075560;28;20028;-68
2023/05/21 09:53:54;;;;;;;21.48;10.30;;;;;;;24.56;63.55;101542.78;5070249;28;20056;-69
2023/05/21 09:56:28;;;;;;;23.75;10.90;;;;;;;25.54;61.38;101542.00;5081192;28;20048;-69
2023/05/21 09:59:03;;;;;;;20.60;9.55;;;;;;;26.38;57.88;101539.69;5075213;28;20020;-70
2023/05/21 10:01:30;;;;;;;20.40;9.40;;;;;;;27.31;54.57;101541.13;5077853;28;20037;-68
2023/05/21 10:03:57;;;;;;;21.17;9.38;;;;;;;27.40;51.06;101541.63;5076158;28;20017;-70
2023/05/21 10:06:25;;;;;;;21.42;10.10;;;;;;;26.52;52.48;101543.53;5080439;28;20025;-68
2023/05/21 10:08:54;;;;;;;20.50;10.23;;;;;;;26.91;50.81;101535.19;5080063;28;20085;-69
2023/05/21 10:11:22;;;;;;;20.35;9.90;;;;;;;27.97;49.17;101524.78;5079448;28;20020;-69
2023/05/21 10:13:54;;;;;;;20.45;10.10;;;;;;;28.40;47.66;101525.00;5078661;28;20028;-70
2023/05/21 10:16:20;;;;;;;20.50;9.35;;;;;;;29.32;46.54;101525.75;5079130;28;20028;-68
2023/05/21 10:18:47;;;;;;;20.25;10.23;;;;;;;28.80;44.93;101525.28;5077774;28;20029;-69
2023/05/21 10:21:14;;;;;;;21.15;10.27;;;;;;;29.01;45.07;101519.50;5076904;28;20069;-73
2023/05/21 10:23:41;;;;;;;20.95;9.93;;;;;;;29.69;43.60;101513.34;5079747;28;20033;-73
2023/05/21 10:26:07;;;;;;;20.70;9.60;;;;;;;29.33;44.42;101530.19;5076865;28;20395;-68
2023/05/21 10:28:32;;;;;;;21.27;10.10;;;;;;;29.54;44.93;101509.75;5076987;28;20032;-72
2023/05/21 10:30:59;;;;;;;20.17;9.60;;;;;;;30.36;43.11;101507.06;5076372;28;20032;-69
2023/05/21 10:33:25;;;;;;;21.75;9.52;;;;;;;31.13;42.47;101510.84;5075433;28;20497;-70
2023/05/21 10:35:53;;;;;;;19.75;9.55;;;;;;;31.68;39.70;101501.34;5080279;28;20028;-70
2023/05/21 10:38:21;;;;;;;20.90;10.35;;;;;;;31.06;39.21;101499.50;5078733;28;20031;-70
2023/05/21 10:40:47;;;;;;;20.40;10.10;;;;;;;30.63;40.56;101503.41;5078196;28;20501;-70
2023/05/21 10:43:50;;;;;;;21.00;9.98;;;;;;;31.69;40.18;101503.09;5054410;28;20025;-70
2023/05/21 10:46:28;;;;;;;20.73;10.30;;;;;;;31.77;40.29;101494.31;5059899;28;20375;-67
2023/05/21 10:49:09;;;;;;;20.35;10.30;;;;;;;32.19;38.91;101488.47;5073294;28;20115;-67
2023/05/21 10:52:03;;;;;;;20.30;9.85;;;;;;;32.72;38.19;101490.72;5080010;28;20046;-67
2023/05/21 10:55:01;;;;;;;20.25;10.25;;;;;;;32.45;37.48;101495.47;5064415;28;20063;-68
2023/05/21 10:57:39;;;;;;;21.05;10.20;;;;;;;32.46;36.47;101490.88;5067686;28;20040;-68
2023/05/21 11:00:06;;;;;;;20.73;10.55;;;;;;;32.92;36.60;101478.19;5074481;28;20036;-67
2023/05/21 11:02:32;;;;;;;21.75;10.77;;;;;;;33.25;35.85;101488.28;5078518;28;20036;-68
2023/05/21 11:04:59;;;;;;;21.60;10.85;;;;;;;33.53;35.34;101472.28;5079558;28;20482;-68
2023/05/21 11:07:57;;;;;;;21.08;9.80;;;;;;;34.47;36.07;101474.41;5077847;28;20032;-68